Terminal Aerodrome Forecast
Issued by NWS Missoula, MT

Home | Current Version | Previous Version | Text Only | Print | Product List | Glossary On
Versions: 1 2 3 4 5 6 7 8 9 10 11 12 13 14
000
FTUS45 KMSO 211120
TAFMSO
TAF
KMSO 211120Z 2112/2212 32006KT P6SM -SHRA BKN060 OVC080
     FM211300 00000KT P6SM -RA BKN040 OVC060
     FM211400 22006KT 6SM RA SCT020 OVC030
     FM211700 30007KT P6SM -RA SCT030 BKN040=

USA.gov is the U.S. government's official web portal to all federal, state and local government web resources and services.